Time;durP1;ratioP1;P1;durP2;ratioP2;P2;SDS_P1;SDS_P2;PMS_P1;PMS_P2;Temp;Humidity;BMP_temperature;BMP_pressure;BME280_temperature;BME280_humidity;BME280_pressure;Samples;Min_cycle;Max_cycle;Signal;HPM_P1;HPM_P2
2022/12/18 00:00:57;;;;;;;94.53;39.80;;;-2.00;99.90;;;;;;5053792;28;21239;-60
2022/12/18 00:03:23;;;;;;;99.93;41.07;;;-2.00;99.90;;;;;;5022414;28;20365;-60
2022/12/18 00:05:52;;;;;;;91.50;39.47;;;-2.00;99.90;;;;;;5054466;28;20078;-60
2022/12/18 00:08:18;;;;;;;96.07;41.63;;;-2.00;99.90;;;;;;5050381;28;20290;-61
2022/12/18 00:10:45;;;;;;;91.37;38.00;;;-2.00;99.90;;;;;;5027826;28;20071;-60
2022/12/18 00:13:12;;;;;;;94.47;39.10;;;-2.00;99.90;;;;;;5047976;28;20036;-60
2022/12/18 00:15:39;;;;;;;94.03;39.97;;;-2.00;99.90;;;;;;5044082;28;20036;-60
2022/12/18 00:18:05;;;;;;;95.00;38.90;;;-2.00;99.90;;;;;;5048646;28;20040;-59
2022/12/18 00:20:35;;;;;;;94.03;40.67;;;-2.10;99.90;;;;;;5047712;28;20053;-59
2022/12/18 00:23:01;;;;;;;90.73;38.70;;;-2.10;99.90;;;;;;5048587;28;20039;-60
2022/12/18 00:25:26;;;;;;;93.27;39.50;;;-2.10;99.90;;;;;;5032179;28;20068;-60
2022/12/18 00:27:52;;;;;;;88.30;37.13;;;-2.20;99.90;;;;;;5049026;28;20485;-60
2022/12/18 00:30:18;;;;;;;87.00;37.67;;;-2.20;99.90;;;;;;5048969;28;20044;-59
2022/12/18 00:32:44;;;;;;;85.37;37.63;;;-2.20;99.90;;;;;;5052992;28;20482;-59
2022/12/18 00:35:09;;;;;;;82.60;36.57;;;-2.30;99.90;;;;;;5050770;28;20079;-59
2022/12/18 00:37:35;;;;;;;86.37;37.37;;;-2.30;99.90;;;;;;5045723;28;20039;-60
2022/12/18 00:40:01;;;;;;;85.80;36.67;;;-2.30;99.90;;;;;;5048402;28;20046;-59
2022/12/18 00:45:11;;;;;;;;;;;-2.30;99.90;;;;;;5062812;28;20365;-59
2022/12/18 00:47:37;;;;;;;86.27;36.27;;;-2.40;99.90;;;;;;5036735;28;19973;-60
2022/12/18 00:50:03;;;;;;;93.67;39.73;;;-2.40;99.90;;;;;;5033086;28;20063;-60
2022/12/18 00:52:29;;;;;;;84.17;36.80;;;-2.40;99.90;;;;;;5047106;28;20135;-60
2022/12/18 00:54:54;;;;;;;92.93;37.93;;;-2.40;99.90;;;;;;5055916;28;20536;-59
2022/12/18 00:57:20;;;;;;;90.63;37.03;;;-2.40;99.90;;;;;;5047112;28;20523;-59
2022/12/18 00:59:46;;;;;;;84.63;37.77;;;-2.40;99.90;;;;;;5048762;28;20092;-60
2022/12/18 01:02:11;;;;;;;87.60;37.73;;;-2.40;99.90;;;;;;5048732;28;20051;-60
2022/12/18 01:04:37;;;;;;;89.17;39.13;;;-2.50;99.90;;;;;;5034391;28;22776;-60
2022/12/18 01:07:03;;;;;;;95.90;40.27;;;-2.40;99.90;;;;;;5049290;28;20040;-60
2022/12/18 01:09:28;;;;;;;102.77;41.60;;;-2.40;99.90;;;;;;5050302;28;20048;-58
2022/12/18 01:11:54;;;;;;;95.03;40.67;;;-2.40;99.90;;;;;;5045700;28;20049;-60
2022/12/18 01:14:20;;;;;;;102.93;40.87;;;-2.40;99.90;;;;;;5048031;28;20045;-59
2022/12/18 01:16:45;;;;;;;85.97;37.73;;;-2.40;99.90;;;;;;5047994;28;20040;-61
2022/12/18 01:19:11;;;;;;;89.37;35.83;;;-2.40;99.90;;;;;;5050698;28;20147;-60
2022/12/18 01:21:37;;;;;;;98.77;39.90;;;-2.40;99.90;;;;;;5028073;28;20054;-60
2022/12/18 01:24:03;;;;;;;97.17;38.13;;;-2.40;99.90;;;;;;5028371;28;20062;-60
2022/12/18 01:26:29;;;;;;;92.63;39.03;;;-2.40;99.90;;;;;;5049263;28;20037;-60
2022/12/18 01:28:58;;;;;;;94.20;39.57;;;-2.40;99.90;;;;;;5043686;28;20056;-60
2022/12/18 01:31:27;;;;;;;87.07;37.73;;;-2.40;99.90;;;;;;5045432;28;20050;-60
2022/12/18 01:33:53;;;;;;;95.13;37.13;;;-2.40;99.90;;;;;;5046986;28;21360;-58
2022/12/18 01:36:25;;;;;;;87.00;35.50;;;-2.40;99.90;;;;;;5043799;28;20048;-58
2022/12/18 01:38:53;;;;;;;93.93;36.00;;;-2.40;99.90;;;;;;5041494;28;20044;-60
2022/12/18 01:41:22;;;;;;;91.30;39.73;;;-2.40;99.90;;;;;;5049443;28;20047;-59
2022/12/18 01:43:54;;;;;;;98.70;39.27;;;-2.40;99.90;;;;;;5045810;28;20040;-60
2022/12/18 01:46:25;;;;;;;88.37;36.40;;;-2.40;99.90;;;;;;5051845;28;20032;-61
2022/12/18 01:48:56;;;;;;;93.83;34.80;;;-2.40;99.90;;;;;;5033778;28;20071;-61
2022/12/18 01:51:22;;;;;;;85.93;35.50;;;-2.40;99.90;;;;;;5043237;28;20449;-62
2022/12/18 01:53:49;;;;;;;91.67;34.47;;;-2.40;99.90;;;;;;5052862;28;20726;-61
2022/12/18 01:56:17;;;;;;;91.40;35.03;;;-2.40;99.90;;;;;;5061362;28;21846;-61
2022/12/18 01:58:54;;;;;;;88.77;36.67;;;-2.40;99.90;;;;;;5041549;28;20059;-61
2022/12/18 02:01:22;;;;;;;93.30;34.87;;;-2.40;99.90;;;;;;5064168;28;20060;-60
2022/12/18 02:03:48;;;;;;;79.17;34.00;;;-2.40;99.90;;;;;;5046035;28;20445;-61
2022/12/18 02:06:20;;;;;;;92.87;37.80;;;-2.40;99.90;;;;;;5046602;28;20497;-61
2022/12/18 02:09:06;;;;;;;86.87;34.67;;;-2.40;99.90;;;;;;5043374;28;20259;-59
2022/12/18 02:11:37;;;;;;;97.00;38.20;;;-2.50;99.90;;;;;;5045125;28;20499;-60
2022/12/18 02:14:06;;;;;;;87.40;33.70;;;-2.50;99.90;;;;;;5041685;28;20123;-60
2022/12/18 02:16:53;;;;;;;92.23;34.67;;;-2.50;99.90;;;;;;5042799;28;20048;-60
2022/12/18 02:19:37;;;;;;;91.60;36.07;;;-2.50;99.90;;;;;;5042897;28;21145;-60
2022/12/18 02:22:26;;;;;;;99.63;36.53;;;-2.50;99.90;;;;;;5046807;28;20696;-61
2022/12/18 02:25:12;;;;;;;88.77;33.93;;;-2.60;99.90;;;;;;5053506;28;20658;-61
2022/12/18 02:27:40;;;;;;;89.90;35.00;;;-2.60;99.90;;;;;;5042595;28;20106;-60
2022/12/18 02:30:07;;;;;;;98.47;36.30;;;-2.60;99.90;;;;;;5044544;28;20323;-61
2022/12/18 02:32:52;;;;;;;84.63;35.97;;;-2.60;99.90;;;;;;5049125;28;20048;-61
2022/12/18 02:35:23;;;;;;;89.68;33.22;;;-2.70;99.90;;;;;;5050101;28;20044;-60
2022/12/18 02:37:50;;;;;;;83.00;32.67;;;-2.70;99.90;;;;;;5051611;28;20130;-61
2022/12/18 02:40:17;;;;;;;84.07;33.03;;;-2.80;99.90;;;;;;5047347;28;20048;-61
2022/12/18 02:42:42;;;;;;;83.20;33.07;;;-2.80;99.90;;;;;;5033533;28;20229;-61
2022/12/18 02:45:09;;;;;;;83.50;33.13;;;-2.80;99.90;;;;;;5031289;28;20841;-61
2022/12/18 02:47:39;;;;;;;85.10;35.03;;;-2.80;99.90;;;;;;5035480;28;20090;-58
2022/12/18 02:50:33;;;;;;;88.73;35.53;;;-2.80;99.90;;;;;;5045907;28;20040;-61
2022/12/18 02:53:22;;;;;;;86.55;34.45;;;-2.90;99.90;;;;;;5040966;28;20541;-60
2022/12/18 02:55:50;;;;;;;83.63;34.03;;;-2.90;99.90;;;;;;5041160;28;26932;-61
2022/12/18 02:58:28;;;;;;;84.73;34.40;;;-3.00;99.90;;;;;;5032437;28;20109;-61
2022/12/18 03:01:15;;;;;;;79.53;34.37;;;-3.00;99.90;;;;;;5038149;28;20453;-60
2022/12/18 03:03:50;;;;;;;86.87;34.60;;;-3.10;99.90;;;;;;5005824;28;1120210;-61
2022/12/18 03:06:26;;;;;;;83.73;35.10;;;-3.10;99.90;;;;;;5043856;28;20522;-61
2022/12/18 03:08:58;;;;;;;84.47;33.67;;;-3.10;99.90;;;;;;5035390;22;20049;-59
2022/12/18 03:12:22;;;;;;;74.30;31.83;;;-3.20;99.90;;;;;;5007845;28;20131;-58
2022/12/18 03:14:15;;;;;;;83.10;33.47;;;-3.20;99.90;;;;;;5015955;28;20061;-57
2022/12/18 03:16:44;;;;;;;83.23;32.80;;;-3.20;99.90;;;;;;5006443;28;20067;-58
2022/12/18 03:19:21;;;;;;;79.17;32.10;;;-3.20;99.90;;;;;;5012583;28;20040;-58
2022/12/18 03:21:58;;;;;;;80.70;32.73;;;-3.20;99.90;;;;;;5009481;28;20201;-58
2022/12/18 03:24:27;;;;;;;85.63;34.53;;;-3.20;99.90;;;;;;4993371;28;20067;-59
2022/12/18 03:26:58;;;;;;;77.47;31.90;;;-3.20;99.90;;;;;;4992795;28;20041;-56
2022/12/18 03:29:33;;;;;;;87.40;35.17;;;-3.30;99.90;;;;;;5026068;28;20049;-58
2022/12/18 03:32:07;;;;;;;83.03;32.87;;;-3.30;99.90;;;;;;5003291;28;20033;-57
2022/12/18 03:34:38;;;;;;;79.13;31.47;;;-3.30;99.90;;;;;;4993005;28;20045;-58
2022/12/18 03:37:04;;;;;;;81.20;34.43;;;-3.40;99.90;;;;;;5004941;28;20049;-57
2022/12/18 03:39:30;;;;;;;88.40;34.77;;;-3.40;99.90;;;;;;5001018;28;20057;-58
2022/12/18 03:42:27;;;;;;;89.90;36.50;;;-3.30;99.90;;;;;;5009066;28;20068;-58
2022/12/18 03:44:56;;;;;;;86.30;33.40;;;-3.30;99.90;;;;;;5004743;28;20053;-58
2022/12/18 03:47:39;;;;;;;81.83;33.87;;;-3.30;99.90;;;;;;5005842;28;20527;-56
2022/12/18 03:50:16;;;;;;;93.00;34.97;;;-3.30;99.90;;;;;;5008457;28;20415;-58
2022/12/18 03:52:48;;;;;;;96.50;37.17;;;-3.40;99.90;;;;;;4990008;28;20049;-54
2022/12/18 03:55:15;;;;;;;92.43;36.97;;;-3.40;99.90;;;;;;5009666;28;20090;-57
2022/12/18 03:57:42;;;;;;;93.53;38.33;;;-3.40;99.90;;;;;;4999872;28;20554;-57
2022/12/18 04:00:14;;;;;;;86.77;35.43;;;-3.40;99.90;;;;;;5012808;28;20706;-56
2022/12/18 04:02:45;;;;;;;85.57;35.80;;;-3.40;99.90;;;;;;5006087;28;20060;-57
2022/12/18 04:05:13;;;;;;;87.97;36.80;;;-3.40;99.90;;;;;;5003486;28;20049;-58
2022/12/18 04:07:40;;;;;;;88.97;34.17;;;-3.40;99.90;;;;;;5008807;28;20053;-55
2022/12/18 04:10:07;;;;;;;90.70;36.47;;;-3.40;99.90;;;;;;5006973;28;20096;-56
2022/12/18 04:12:33;;;;;;;85.50;34.67;;;-3.40;99.90;;;;;;5006597;28;20523;-58
2022/12/18 04:14:58;;;;;;;92.93;37.43;;;-3.40;99.90;;;;;;5005879;28;20143;-57
2022/12/18 04:17:24;;;;;;;88.47;35.93;;;-3.40;99.90;;;;;;5004369;28;20094;-57
2022/12/18 04:19:50;;;;;;;94.97;39.23;;;-3.40;99.90;;;;;;4989933;28;20156;-58
2022/12/18 04:22:16;;;;;;;84.70;33.97;;;-3.50;99.90;;;;;;5008272;28;20041;-58
2022/12/18 04:24:42;;;;;;;84.73;35.03;;;-3.50;99.90;;;;;;5007416;28;20091;-58
2022/12/18 04:27:07;;;;;;;90.00;34.63;;;-3.50;99.90;;;;;;5004620;28;20050;-57
2022/12/18 04:29:33;;;;;;;88.93;35.03;;;-3.50;99.90;;;;;;5009253;28;20046;-58
2022/12/18 04:31:59;;;;;;;79.80;33.00;;;-3.50;99.90;;;;;;5005927;28;20294;-57
2022/12/18 04:34:24;;;;;;;83.23;34.83;;;-3.50;99.90;;;;;;5007457;28;20283;-58
2022/12/18 04:36:50;;;;;;;91.40;37.57;;;-3.50;99.90;;;;;;5003592;28;20038;-58
2022/12/18 04:39:18;;;;;;;92.60;35.83;;;-3.60;99.90;;;;;;4989177;28;20061;-57
2022/12/18 04:41:43;;;;;;;82.20;33.37;;;-3.60;99.90;;;;;;4993811;28;20492;-56
2022/12/18 04:44:09;;;;;;;88.90;35.03;;;-3.60;99.90;;;;;;5006342;28;20069;-58
2022/12/18 04:46:35;;;;;;;77.37;33.47;;;-3.70;99.90;;;;;;5005832;28;20183;-58
2022/12/18 04:49:01;;;;;;;78.30;32.07;;;-3.70;99.90;;;;;;4998706;28;20623;-57
2022/12/18 04:51:26;;;;;;;76.77;34.80;;;-3.70;99.90;;;;;;5006191;28;20037;-58
2022/12/18 04:53:53;;;;;;;82.07;33.40;;;-3.70;99.90;;;;;;5003244;28;20453;-57
2022/12/18 04:56:19;;;;;;;77.90;32.20;;;-3.70;99.90;;;;;;4990045;28;20049;-58
2022/12/18 04:58:45;;;;;;;78.07;33.13;;;-3.70;99.90;;;;;;5007921;28;20095;-58
2022/12/18 05:01:12;;;;;;;73.40;31.07;;;-3.70;99.90;;;;;;5004410;28;20052;-58
2022/12/18 05:03:38;;;;;;;74.93;29.97;;;-3.70;99.90;;;;;;5009677;28;20102;-58
2022/12/18 05:06:05;;;;;;;76.27;29.93;;;-3.80;99.90;;;;;;5010912;28;20167;-58
2022/12/18 05:08:32;;;;;;;74.67;34.03;;;-3.70;99.90;;;;;;5006251;28;20052;-57
2022/12/18 05:11:07;;;;;;;70.63;30.93;;;-3.80;99.90;;;;;;4994544;28;20048;-57
2022/12/18 05:13:34;;;;;;;71.37;33.17;;;-3.80;99.90;;;;;;5004946;28;20052;-57
2022/12/18 05:16:00;;;;;;;69.53;30.20;;;-3.80;99.90;;;;;;5003317;28;20044;-57
2022/12/18 05:18:26;;;;;;;60.97;29.83;;;-3.80;99.90;;;;;;4995432;28;20053;-58
2022/12/18 05:20:53;;;;;;;62.33;28.27;;;-3.80;99.90;;;;;;4990740;28;22126;-58
2022/12/18 05:23:20;;;;;;;65.70;30.23;;;-3.80;99.90;;;;;;5005647;28;20052;-57
2022/12/18 05:25:53;;;;;;;68.03;30.00;;;-3.90;99.90;;;;;;5009003;28;20492;-55
2022/12/18 05:28:20;;;;;;;64.10;29.90;;;-3.90;99.90;;;;;;5002760;28;20042;-56
2022/12/18 05:30:54;;;;;;;63.57;27.67;;;-3.90;99.90;;;;;;5000919;28;20085;-57
2022/12/18 05:33:20;;;;;;;70.45;30.25;;;-3.90;99.90;;;;;;5007885;28;20049;-57
2022/12/18 05:35:51;;;;;;;59.63;26.37;;;-3.90;99.90;;;;;;4987230;28;20064;-57
2022/12/18 05:38:18;;;;;;;64.53;27.60;;;-3.90;99.90;;;;;;5004872;28;20041;-57
2022/12/18 05:40:44;;;;;;;60.57;26.83;;;-3.90;99.90;;;;;;5013305;28;20637;-56
2022/12/18 05:43:10;;;;;;;54.77;25.80;;;-3.80;99.90;;;;;;5008759;28;20277;-57
2022/12/18 05:45:39;;;;;;;58.57;27.77;;;-3.90;99.90;;;;;;5014586;28;20045;-58
2022/12/18 05:48:06;;;;;;;63.77;26.67;;;-3.90;99.90;;;;;;4990846;28;20205;-57
2022/12/18 05:50:35;;;;;;;58.40;28.03;;;-3.90;99.90;;;;;;5009318;28;20037;-57
2022/12/18 05:53:01;;;;;;;60.03;26.90;;;-4.00;99.90;;;;;;4995954;28;20048;-58
2022/12/18 05:55:27;;;;;;;61.43;27.43;;;-4.00;99.90;;;;;;5021466;28;20055;-55
2022/12/18 05:57:53;;;;;;;61.23;28.53;;;-4.00;99.90;;;;;;4977553;28;20461;-58
2022/12/18 06:00:18;;;;;;;61.13;26.73;;;-4.00;99.90;;;;;;5013675;28;20044;-56
2022/12/18 06:02:47;;;;;;;60.53;27.83;;;-4.00;99.90;;;;;;4989962;28;20054;-56
2022/12/18 06:05:13;;;;;;;60.13;24.93;;;-4.00;99.90;;;;;;4993004;28;20052;-58
2022/12/18 06:07:38;;;;;;;57.23;26.97;;;-4.00;99.90;;;;;;5013134;28;20045;-56
2022/12/18 06:10:05;;;;;;;58.10;24.50;;;-4.10;99.90;;;;;;5007667;28;20044;-57
2022/12/18 06:12:33;;;;;;;57.93;26.70;;;-4.10;99.90;;;;;;5005770;28;20111;-58
2022/12/18 06:14:59;;;;;;;55.23;26.60;;;-4.10;99.90;;;;;;5009095;28;20083;-57
2022/12/18 06:17:34;;;;;;;58.17;27.27;;;-4.10;99.90;;;;;;4975288;28;20037;-56
2022/12/18 06:20:01;;;;;;;54.57;24.67;;;-4.10;99.90;;;;;;4994233;28;20045;-58
2022/12/18 06:22:26;;;;;;;50.60;25.17;;;-4.10;99.90;;;;;;5007557;28;20065;-57
2022/12/18 06:24:52;;;;;;;59.93;26.07;;;-4.20;99.90;;;;;;4999169;28;20040;-55
2022/12/18 06:27:18;;;;;;;63.30;26.70;;;-4.20;99.90;;;;;;5007222;28;20620;-58
2022/12/18 06:29:44;;;;;;;54.30;25.03;;;-4.20;99.90;;;;;;4994787;28;20045;-54
2022/12/18 06:32:09;;;;;;;58.97;26.13;;;-4.20;99.90;;;;;;5001858;28;20076;-59
2022/12/18 06:34:37;;;;;;;52.00;25.63;;;-4.20;99.90;;;;;;5009086;28;20041;-59
2022/12/18 06:37:03;;;;;;;57.03;23.77;;;-4.20;99.90;;;;;;5006230;28;20091;-58
2022/12/18 06:39:29;;;;;;;52.00;24.83;;;-4.30;99.90;;;;;;5008239;28;20100;-57
2022/12/18 06:41:55;;;;;;;53.30;24.93;;;-4.30;99.90;;;;;;5007003;28;20041;-57
2022/12/18 06:44:21;;;;;;;50.90;24.83;;;-4.30;99.90;;;;;;5008262;28;20762;-57
2022/12/18 06:46:47;;;;;;;47.23;22.27;;;-4.30;99.90;;;;;;5001487;28;20036;-57
2022/12/18 06:49:13;;;;;;;48.97;22.73;;;-4.30;99.90;;;;;;4992985;28;21000;-57
2022/12/18 06:51:41;;;;;;;49.93;23.07;;;-4.30;99.90;;;;;;5016994;28;20099;-58
2022/12/18 06:54:08;;;;;;;54.67;22.43;;;-4.30;99.90;;;;;;5010545;28;20086;-57
2022/12/18 06:56:33;;;;;;;50.20;23.77;;;-4.30;99.90;;;;;;5011963;28;20040;-57
2022/12/18 06:58:59;;;;;;;49.67;22.53;;;-4.40;99.90;;;;;;5008498;28;20221;-56
2022/12/18 07:01:25;;;;;;;44.67;21.57;;;-4.30;99.90;;;;;;4989543;28;20048;-58
2022/12/18 07:03:55;;;;;;;47.30;20.90;;;-4.30;99.90;;;;;;5007876;28;20077;-58
2022/12/18 07:06:26;;;;;;;43.97;21.77;;;-4.30;99.90;;;;;;5007237;28;20448;-58
2022/12/18 07:08:53;;;;;;;43.20;21.13;;;-4.30;99.90;;;;;;5015155;28;20167;-58
2022/12/18 07:11:19;;;;;;;48.87;21.43;;;-4.30;99.90;;;;;;4990234;28;20064;-57
2022/12/18 07:13:46;;;;;;;39.57;19.93;;;-4.40;99.90;;;;;;4996204;28;20041;-55
2022/12/18 07:16:14;;;;;;;42.00;19.67;;;-4.30;99.90;;;;;;5004667;28;20523;-58
2022/12/18 07:18:40;;;;;;;43.13;21.80;;;-4.30;99.90;;;;;;5010960;28;20068;-56
2022/12/18 07:21:10;;;;;;;46.57;20.43;;;-4.30;99.90;;;;;;5003771;28;20197;-56
2022/12/18 07:23:37;;;;;;;41.13;20.90;;;-4.30;99.90;;;;;;4977593;28;20049;-57
2022/12/18 07:26:10;;;;;;;40.30;20.53;;;-4.30;99.90;;;;;;5003458;28;20045;-55
2022/12/18 07:28:37;;;;;;;39.83;19.15;;;-4.30;99.90;;;;;;5010133;28;20163;-57
2022/12/18 07:31:11;;;;;;;47.33;19.60;;;-4.30;99.90;;;;;;5001989;28;20045;-58
2022/12/18 07:33:37;;;;;;;;;;;-4.30;99.90;;;;;;5008552;28;20373;-56
2022/12/18 07:36:05;;;;;;;40.27;18.93;;;-4.30;99.90;;;;;;5002758;28;19975;-55
2022/12/18 07:38:32;;;;;;;44.83;21.50;;;-4.30;99.90;;;;;;5009180;28;20037;-58
2022/12/18 07:41:06;;;;;;;42.93;19.40;;;-4.30;99.90;;;;;;5008849;28;20076;-58
2022/12/18 07:43:31;;;;;;;40.47;19.10;;;-4.30;99.90;;;;;;5016351;28;20048;-56
2022/12/18 07:45:57;;;;;;;43.17;19.27;;;-4.30;99.90;;;;;;4990393;28;20041;-57
2022/12/18 07:48:23;;;;;;;40.10;17.27;;;-4.30;99.90;;;;;;5005939;28;20040;-57
2022/12/18 07:50:49;;;;;;;44.37;19.43;;;-4.70;99.90;;;;;;5009035;28;20361;-57
2022/12/18 07:53:14;;;;;;;45.57;18.87;;;-4.30;99.90;;;;;;5004098;28;20039;-57
2022/12/18 07:55:41;;;;;;;38.70;18.47;;;-4.30;99.90;;;;;;5003226;28;20051;-58
2022/12/18 07:58:07;;;;;;;40.53;18.20;;;-4.30;99.90;;;;;;5011831;28;20111;-56
2022/12/18 08:00:33;;;;;;;38.43;18.10;;;-4.30;99.90;;;;;;4989818;28;21712;-57
2022/12/18 08:02:59;;;;;;;41.27;17.57;;;-4.20;99.90;;;;;;5011712;28;20048;-57
2022/12/18 08:05:25;;;;;;;37.87;18.57;;;-4.20;99.90;;;;;;5016228;28;21829;-57
2022/12/18 08:07:51;;;;;;;39.33;17.13;;;-4.20;99.90;;;;;;4991875;28;20103;-56
2022/12/18 08:10:17;;;;;;;38.30;17.87;;;-4.10;99.90;;;;;;5002626;28;20049;-57
2022/12/18 08:12:43;;;;;;;41.03;18.93;;;-4.10;99.90;;;;;;5008107;28;20091;-57
2022/12/18 08:15:09;;;;;;;42.43;18.67;;;-4.10;99.90;;;;;;4993400;28;20125;-57
2022/12/18 08:17:34;;;;;;;34.53;17.10;;;-4.10;99.90;;;;;;5005718;28;20756;-58
2022/12/18 08:20:00;;;;;;;33.00;17.63;;;-4.00;99.90;;;;;;5002466;28;21795;-57
2022/12/18 08:22:26;;;;;;;35.57;17.07;;;-4.00;99.90;;;;;;5000601;28;20110;-57
2022/12/18 08:24:51;;;;;;;43.43;17.87;;;-4.00;99.90;;;;;;4999230;28;21062;-57
2022/12/18 08:27:17;;;;;;;36.93;18.03;;;-3.90;99.90;;;;;;5004835;28;20047;-56
2022/12/18 08:29:43;;;;;;;41.43;18.77;;;-3.90;99.90;;;;;;5002250;28;20060;-57
2022/12/18 08:32:10;;;;;;;34.83;17.17;;;-3.80;99.90;;;;;;5001876;28;20044;-54
2022/12/18 08:34:35;;;;;;;33.27;16.90;;;-3.80;99.90;;;;;;5027662;28;20041;-56
2022/12/18 08:37:01;;;;;;;34.47;17.13;;;-3.80;99.90;;;;;;5038208;28;20048;-56
2022/12/18 08:39:27;;;;;;;36.33;18.00;;;-3.70;99.90;;;;;;5039337;28;20372;-58
2022/12/18 08:44:37;;;;;;;;;;;-3.60;99.90;;;;;;5033073;28;20049;-57
2022/12/18 08:47:03;;;;;;;30.87;15.60;;;-3.50;99.90;;;;;;5039934;28;19931;-56
2022/12/18 08:49:29;;;;;;;33.50;17.40;;;-3.50;99.90;;;;;;5038916;28;20512;-57
2022/12/18 08:51:57;;;;;;;37.60;17.67;;;-3.40;99.90;;;;;;5022770;28;20132;-56
2022/12/18 08:54:23;;;;;;;34.70;18.07;;;-3.40;99.90;;;;;;5036735;28;20127;-56
2022/12/18 08:56:49;;;;;;;35.73;17.37;;;-3.30;99.90;;;;;;5035763;28;20048;-57
2022/12/18 08:59:16;;;;;;;36.07;17.70;;;-3.30;99.90;;;;;;5038766;28;20170;-56
2022/12/18 09:01:42;;;;;;;31.30;16.43;;;-3.20;99.90;;;;;;5009819;28;20055;-59
2022/12/18 09:04:09;;;;;;;30.97;17.20;;;-3.20;99.90;;;;;;5034960;28;20048;-54
2022/12/18 09:06:35;;;;;;;35.07;17.17;;;-3.10;99.90;;;;;;5035816;28;20190;-57
2022/12/18 09:09:03;;;;;;;31.80;16.83;;;-3.00;99.90;;;;;;5053104;22;20032;-59
2022/12/18 09:11:29;;;;;;;34.57;16.53;;;-3.00;99.90;;;;;;5100398;28;20044;-60
2022/12/18 09:13:56;;;;;;;29.30;16.27;;;-2.90;99.90;;;;;;5079941;28;20046;-60
2022/12/18 09:16:23;;;;;;;31.30;15.27;;;-2.80;99.90;;;;;;5102241;28;20044;-59
2022/12/18 09:18:48;;;;;;;29.93;16.77;;;-2.80;99.90;;;;;;5083960;28;20044;-60
2022/12/18 09:21:17;;;;;;;30.30;15.37;;;-2.70;99.90;;;;;;5099514;28;20043;-60
2022/12/18 09:23:43;;;;;;;29.27;14.80;;;-2.60;99.90;;;;;;5081966;28;20031;-61
2022/12/18 09:26:09;;;;;;;31.93;16.03;;;-2.50;99.90;;;;;;5065931;28;20627;-60
2022/12/18 09:28:35;;;;;;;27.90;13.90;;;-2.50;99.90;;;;;;5101952;27;20031;-60
2022/12/18 09:31:05;;;;;;;27.63;14.20;;;-2.40;99.90;;;;;;5084706;28;20069;-59
2022/12/18 09:33:31;;;;;;;28.83;14.53;;;-2.30;99.90;;;;;;5098105;28;20051;-60
2022/12/18 09:35:57;;;;;;;27.20;14.27;;;-2.20;99.90;;;;;;5095050;27;20108;-60
2022/12/18 09:38:23;;;;;;;30.27;15.23;;;-2.10;99.90;;;;;;5081654;28;20039;-59
2022/12/18 09:40:53;;;;;;;24.17;14.57;;;-2.10;99.90;;;;;;5082774;28;20463;-59
2022/12/18 09:43:30;;;;;;;26.87;13.93;;;-2.00;99.90;;;;;;5098668;28;20035;-60
2022/12/18 09:46:01;;;;;;;24.77;13.67;;;-2.00;99.90;;;;;;5099065;28;20047;-60
2022/12/18 09:48:38;;;;;;;24.97;12.63;;;-2.00;99.90;;;;;;5101344;28;20044;-60
2022/12/18 09:51:24;;;;;;;27.07;13.10;;;-1.90;99.90;;;;;;5088975;27;20077;-59
2022/12/18 09:53:58;;;;;;;25.20;14.40;;;-1.80;99.90;;;;;;5100833;28;20413;-60
2022/12/18 09:56:28;;;;;;;26.00;13.77;;;-1.80;99.90;;;;;;5095560;27;20036;-60
2022/12/18 09:58:58;;;;;;;22.10;12.37;;;-1.70;99.90;;;;;;5100382;27;20141;-60
2022/12/18 10:01:26;;;;;;;20.63;11.50;;;-1.70;99.90;;;;;;5093253;28;20044;-60
2022/12/18 10:03:53;;;;;;;22.87;12.23;;;-1.70;99.90;;;;;;5102712;28;20031;-59
2022/12/18 10:06:36;;;;;;;24.30;12.73;;;-1.70;99.90;;;;;;5091339;28;20424;-60
2022/12/18 10:09:21;;;;;;;20.77;11.48;;;-1.60;99.90;;;;;;5079580;28;20040;-59
2022/12/18 10:12:05;;;;;;;;;;;-1.60;99.90;;;;;;5101892;28;20490;-59
2022/12/18 10:14:45;;;;;;;21.35;13.10;;;-1.70;99.90;;;;;;5100370;28;19919;-60
2022/12/18 10:17:35;;;;;;;20.70;12.23;;;-1.60;99.90;;;;;;5079687;28;20172;-61
2022/12/18 10:20:10;;;;;;;21.40;12.13;;;-1.70;99.90;;;;;;5100833;28;20047;-60
2022/12/18 10:22:47;;;;;;;22.43;11.53;;;-1.70;99.90;;;;;;5079880;28;20527;-60
2022/12/18 10:25:31;;;;;;;20.27;11.30;;;-1.60;99.90;;;;;;5080671;28;20035;-59
2022/12/18 10:28:00;;;;;;;;;;;-1.60;99.90;;;;;;5087919;28;20043;-61
2022/12/18 10:30:26;;;;;;;20.90;11.70;;;-1.60;99.90;;;;;;5104616;28;20828;-61
2022/12/18 10:32:52;;;;;;;22.53;13.07;;;-1.60;99.90;;;;;;5078024;28;20406;-60
2022/12/18 10:35:24;;;;;;;19.83;11.80;;;-1.60;99.90;;;;;;5069724;28;20409;-59
2022/12/18 10:38:16;;;;;;;23.60;12.77;;;-1.60;99.90;;;;;;5102649;28;20502;-59
2022/12/18 10:40:52;;;;;;;17.53;11.23;;;-1.60;99.90;;;;;;5065262;28;20117;-60
2022/12/18 10:43:27;;;;;;;19.90;10.70;;;-1.60;99.90;;;;;;5059268;27;20441;-60
2022/12/18 10:46:19;;;;;;;19.30;9.87;;;-1.60;99.90;;;;;;5079729;28;20044;-60
2022/12/18 10:48:50;;;;;;;20.03;10.60;;;-1.50;99.90;;;;;;5071235;28;20109;-59
2022/12/18 10:51:37;;;;;;;18.57;10.53;;;-1.50;99.90;;;;;;5092952;27;20046;-60
2022/12/18 10:54:22;;;;;;;18.53;10.73;;;-1.40;99.90;;;;;;5074515;28;20198;-61
2022/12/18 10:56:48;;;;;;;21.20;11.47;;;-1.40;99.90;;;;;;5077886;28;20096;-60
2022/12/18 10:59:16;;;;;;;23.43;14.60;;;-1.30;99.90;;;;;;5097950;28;20554;-60
2022/12/18 11:01:47;;;;;;;19.57;12.50;;;-1.40;99.90;;;;;;5077087;28;20039;-60
2022/12/18 11:04:35;;;;;;;21.90;12.57;;;-1.40;99.90;;;;;;5086851;28;20077;-59
2022/12/18 11:07:02;;;;;;;22.67;11.83;;;-1.40;99.90;;;;;;5097687;28;20052;-60
2022/12/18 11:09:36;;;;;;;23.10;14.47;;;-1.50;99.90;;;;;;5101326;28;20031;-59
2022/12/18 11:12:05;;;;;;;19.70;12.20;;;-1.50;99.90;;;;;;5076044;27;20032;-60
2022/12/18 11:14:47;;;;;;;22.40;12.43;;;-1.50;99.90;;;;;;5035190;28;20039;-59
2022/12/18 11:17:26;;;;;;;18.37;10.57;;;-1.50;99.90;;;;;;5064278;28;20353;-60
2022/12/18 11:20:00;;;;;;;20.40;10.20;;;-1.50;99.90;;;;;;5097582;28;20169;-60
2022/12/18 11:22:30;;;;;;;22.43;13.30;;;-1.40;99.90;;;;;;5080125;28;20435;-57
2022/12/18 11:25:18;;;;;;;18.33;11.43;;;-1.40;99.90;;;;;;5086510;27;20055;-59
2022/12/18 11:27:50;;;;;;;20.37;11.97;;;-1.40;99.90;;;;;;5094114;27;20070;-59
2022/12/18 11:30:35;;;;;;;20.20;10.70;;;-1.00;99.90;;;;;;5092813;28;20035;-59
2022/12/18 11:33:06;;;;;;;19.57;12.03;;;-1.30;99.90;;;;;;5075650;28;20044;-60
2022/12/18 11:35:38;;;;;;;18.60;10.17;;;-1.30;99.90;;;;;;5078922;28;20100;-58
2022/12/18 11:38:19;;;;;;;21.83;10.93;;;-1.30;99.90;;;;;;5050701;28;20043;-59
2022/12/18 11:40:50;;;;;;;14.90;9.47;;;-1.30;99.90;;;;;;5081185;27;20051;-58
2022/12/18 11:43:26;;;;;;;18.23;10.00;;;-1.20;99.90;;;;;;5077333;28;20032;-59
2022/12/18 11:45:59;;;;;;;18.57;10.53;;;-1.20;99.90;;;;;;5077884;28;20050;-58
2022/12/18 11:48:44;;;;;;;18.07;10.03;;;-1.20;99.90;;;;;;5050492;28;20461;-60
2022/12/18 11:51:19;;;;;;;18.07;10.07;;;-1.20;99.90;;;;;;5077767;28;20109;-59
2022/12/18 11:53:45;;;;;;;15.27;9.13;;;-1.20;99.90;;;;;;5058044;28;20204;-58
2022/12/18 11:56:28;;;;;;;18.77;9.40;;;-1.20;99.90;;;;;;5057945;28;21538;-60
2022/12/18 11:59:31;;;;;;;16.63;10.10;;;-1.20;99.90;;;;;;5093464;28;20086;-59
2022/12/18 12:02:03;;;;;;;16.90;8.83;;;-1.20;99.90;;;;;;5079106;28;20048;-58
2022/12/18 12:04:59;;;;;;;15.00;9.27;;;-1.20;99.90;;;;;;5085605;28;20043;-59
2022/12/18 12:07:34;;;;;;;16.90;8.93;;;-1.10;99.90;;;;;;5093080;28;20035;-59
2022/12/18 12:10:00;;;;;;;13.30;8.30;;;-1.20;99.90;;;;;;5063129;28;20036;-59
2022/12/18 12:13:03;;;;;;;17.53;9.07;;;-1.10;99.90;;;;;;5086396;28;20031;-59
2022/12/18 12:15:46;;;;;;;14.67;8.80;;;-1.10;99.90;;;;;;5094209;28;20047;-59
2022/12/18 12:18:47;;;;;;;15.13;7.90;;;-1.10;99.90;;;;;;5090569;28;20079;-59
2022/12/18 12:21:12;;;;;;;15.20;8.67;;;-1.00;99.90;;;;;;5083661;27;20189;-59
2022/12/18 12:24:02;;;;;;;17.50;8.93;;;-1.00;99.90;;;;;;5090485;28;20448;-59
2022/12/18 12:26:45;;;;;;;14.13;8.13;;;-1.10;99.90;;;;;;5092403;28;20046;-59
2022/12/18 12:29:10;;;;;;;12.13;8.27;;;-1.00;99.90;;;;;;5092950;28;20421;-60
2022/12/18 12:32:05;;;;;;;13.57;7.93;;;-1.00;99.90;;;;;;5094835;28;20036;-57
2022/12/18 12:34:47;;;;;;;;;;;-1.00;99.90;;;;;;5071618;28;20044;-60
2022/12/18 12:37:37;;;;;;;16.37;8.97;;;-1.00;99.90;;;;;;5059363;28;19927;-59
2022/12/18 12:40:03;;;;;;;15.07;7.47;;;-0.90;99.90;;;;;;5092213;28;20067;-59
2022/12/18 12:45:50;;;;;;;12.93;7.80;;;-0.90;99.90;;;;;;5088638;28;20161;-59
2022/12/18 12:48:34;;;;;;;14.63;7.03;;;-0.80;99.90;;;;;;5090190;28;20040;-59
2022/12/18 12:51:06;;;;;;;13.45;7.78;;;-0.80;99.90;;;;;;5077986;28;20178;-58
2022/12/18 12:53:37;;;;;;;9.10;6.20;;;-0.80;99.90;;;;;;5094061;28;20068;-60
2022/12/18 12:56:04;;;;;;;13.83;6.63;;;-0.70;99.90;;;;;;5099944;28;20031;-59